createdAt,value
2023-02-25T00:03:11.961Z,4.20
2023-02-25T00:08:16.525Z,3.80
2023-02-25T00:13:21.133Z,3.50
2023-02-25T00:18:24.880Z,3.10
2023-02-25T00:23:28.570Z,2.80
2023-02-25T00:28:33.962Z,2.70
2023-02-25T00:33:41.874Z,2.70
2023-02-25T00:38:48.277Z,2.70
2023-02-25T00:43:55.219Z,2.70
2023-02-25T00:48:59.083Z,2.70
2023-02-25T00:54:03.036Z,2.70
2023-02-25T00:59:08.069Z,2.70
2023-02-25T01:04:11.405Z,2.70
2023-02-25T01:09:15.190Z,2.80
2023-02-25T01:14:21.857Z,2.80
2023-02-25T01:19:26.184Z,2.70
2023-02-25T01:24:32.491Z,2.80
2023-02-25T01:29:40.303Z,2.90
2023-02-25T01:34:45.232Z,2.90
2023-02-25T01:39:48.445Z,2.90
2023-02-25T01:45:37.608Z,3.10
2023-02-25T01:50:47.750Z,3.10
2023-02-25T01:55:51.634Z,3.20
2023-02-25T02:00:55.790Z,3.30
2023-02-25T02:13:10.788Z,3.40
2023-02-25T02:18:17.128Z,3.50
2023-02-25T02:23:39.419Z,3.50
2023-02-25T02:29:45.366Z,3.40
2023-02-25T02:34:55.067Z,3.50
2023-02-25T02:40:15.182Z,3.40
2023-02-25T02:45:24.753Z,3.50
2023-02-25T02:50:36.057Z,3.50
2023-02-25T02:55:43.625Z,3.50
2023-02-25T03:00:55.662Z,3.50
2023-02-25T03:06:04.450Z,3.40
2023-02-25T03:11:07.867Z,3.40
2023-02-25T03:16:14.902Z,3.50
2023-02-25T03:21:25.768Z,3.50
2023-02-25T03:26:33.731Z,3.40
2023-02-25T03:31:45.859Z,3.40
2023-02-25T03:36:57.065Z,3.40
2023-02-25T03:42:04.105Z,3.40
2023-02-25T03:47:10.809Z,3.40
2023-02-25T03:52:19.920Z,3.40
2023-02-25T03:57:29.223Z,3.30
2023-02-25T04:02:33.882Z,3.30
2023-02-25T04:07:39.287Z,3.30
2023-02-25T04:12:43.061Z,3.30
2023-02-25T04:17:46.968Z,3.30
2023-02-25T04:22:52.251Z,3.20
2023-02-25T04:27:55.471Z,3.10
2023-02-25T04:32:59.826Z,3.20
2023-02-25T04:38:04.656Z,3.20
2023-02-25T04:43:09.920Z,3.10
2023-02-25T04:48:13.437Z,3.10
2023-02-25T04:53:18.027Z,3.10
2023-02-25T04:58:21.352Z,3.10
2023-02-25T05:03:25.720Z,3.20
2023-02-25T05:08:30.465Z,3.00
2023-02-25T05:13:34.104Z,3.00
2023-02-25T05:18:37.856Z,3.00
2023-02-25T05:23:44.206Z,3.00
2023-02-25T05:28:49.131Z,2.90
2023-02-25T05:33:53.092Z,3.00
2023-02-25T05:38:59.127Z,3.00
2023-02-25T05:44:02.879Z,2.90
2023-02-25T05:49:06.604Z,2.90
2023-02-25T05:54:11.162Z,2.90
2023-02-25T05:59:14.471Z,2.80
2023-02-25T06:04:17.783Z,2.80
2023-02-25T06:09:22.655Z,2.80
2023-02-25T06:14:26.092Z,2.80
2023-02-25T06:19:30.112Z,2.70
2023-02-25T06:24:36.184Z,2.70
2023-02-25T06:29:42.113Z,2.60
2023-02-25T06:34:45.627Z,2.70
2023-02-25T06:39:52.066Z,2.60
2023-02-25T06:44:55.425Z,2.60
2023-02-25T06:50:01.311Z,2.50
2023-02-25T06:55:08.039Z,2.50
2023-02-25T07:00:12.706Z,2.60
2023-02-25T07:05:16.326Z,2.60
2023-02-25T07:10:21.329Z,2.70
2023-02-25T07:15:24.587Z,2.70
2023-02-25T07:20:27.887Z,2.90
2023-02-25T07:25:32.592Z,3.00
2023-02-25T07:30:35.915Z,2.90
2023-02-25T07:35:39.333Z,3.00
2023-02-25T07:40:44.338Z,3.00
2023-02-25T07:45:49.617Z,3.00
2023-02-25T07:50:52.945Z,3.10
2023-02-25T07:55:57.587Z,3.10
2023-02-25T08:01:03.522Z,3.20
2023-02-25T08:06:08.899Z,3.20
2023-02-25T08:11:14.835Z,3.40
2023-02-25T08:16:20.261Z,3.20
2023-02-25T08:21:24.469Z,3.10
2023-02-25T08:26:29.482Z,3.20
2023-02-25T08:31:33.318Z,3.00
2023-02-25T08:36:37.246Z,3.30
2023-02-25T08:41:42.930Z,3.20
2023-02-25T08:46:46.576Z,3.20
2023-02-25T08:51:50.699Z,3.20
2023-02-25T08:56:57.192Z,3.40
2023-02-25T09:02:00.423Z,3.10
2023-02-25T09:07:03.640Z,3.30
2023-02-25T09:12:08.967Z,3.30
2023-02-25T09:17:12.457Z,3.50
2023-02-25T09:22:15.803Z,3.70
2023-02-25T09:27:20.535Z,4.10
2023-02-25T09:32:24.052Z,4.80
2023-02-25T09:37:27.396Z,4.90
2023-02-25T09:42:44.252Z,4.90
2023-02-25T09:47:52.616Z,4.70
2023-02-25T09:53:02.711Z,4.50
2023-02-25T09:58:20.012Z,4.10
2023-02-25T10:03:40.539Z,3.80
2023-02-25T10:08:51.736Z,3.80
2023-02-25T10:14:02.397Z,4.00
2023-02-25T10:19:16.773Z,3.70
2023-02-25T10:24:29.597Z,3.90
2023-02-25T10:29:38.852Z,3.90
2023-02-25T10:34:42.842Z,4.00
2023-02-25T10:39:48.688Z,4.10
2023-02-25T10:44:54.619Z,4.00
2023-02-25T10:50:16.501Z,3.90
2023-02-25T10:55:27.414Z,3.40
2023-02-25T11:00:34.036Z,3.90
2023-02-25T11:05:40.890Z,4.30
2023-02-25T11:11:06.149Z,4.50
2023-02-25T11:16:13.006Z,4.60
2023-02-25T11:21:27.251Z,5.10
2023-02-25T11:26:33.457Z,5.20
2023-02-25T11:31:40.976Z,5.30
2023-02-25T11:36:46.813Z,5.00
2023-02-25T11:41:54.655Z,5.20
2023-02-25T11:47:04.524Z,4.60
2023-02-25T11:52:13.745Z,4.10
2023-02-25T11:57:27.316Z,3.80
2023-02-25T12:02:44.095Z,4.20
2023-02-25T12:08:13.422Z,4.70
2023-02-25T12:14:05.925Z,4.60
2023-02-25T12:19:41.060Z,3.70
2023-02-25T12:25:05.534Z,2.90
2023-02-25T12:30:38.882Z,3.00
2023-02-25T12:36:08.947Z,3.30
2023-02-25T12:41:33.240Z,3.70
2023-02-25T12:46:54.370Z,3.70
2023-02-25T12:52:35.376Z,2.90
2023-02-25T12:57:50.370Z,2.80
2023-02-25T13:03:03.070Z,3.00
2023-02-25T13:08:32.634Z,3.20
2023-02-25T13:13:58.754Z,3.40
2023-02-25T13:19:17.806Z,3.70
2023-02-25T13:24:41.762Z,4.10
2023-02-25T13:30:10.162Z,4.50
2023-02-25T13:35:29.031Z,4.20
2023-02-25T13:40:42.739Z,3.60
2023-02-25T13:46:03.284Z,3.30
2023-02-25T13:51:24.976Z,2.90
2023-02-25T13:56:52.049Z,2.70
2023-02-25T14:02:20.741Z,2.90
2023-02-25T14:07:47.942Z,3.20
2023-02-25T14:13:13.364Z,3.40
2023-02-25T14:18:44.507Z,3.30
2023-02-25T14:23:56.083Z,3.60
2023-02-25T14:29:14.871Z,3.50
2023-02-25T14:34:34.187Z,3.60
2023-02-25T14:39:46.326Z,3.60
2023-02-25T14:44:56.688Z,3.60
2023-02-25T14:50:09.336Z,3.70
2023-02-25T14:55:33.707Z,3.60
2023-02-25T15:00:56.371Z,3.70
2023-02-25T15:06:13.532Z,3.70
2023-02-25T15:11:31.086Z,3.50
2023-02-25T15:17:08.989Z,3.40
2023-02-25T15:22:21.476Z,3.30
2023-02-25T15:27:44.666Z,3.20
2023-02-25T15:33:14.973Z,3.10
2023-02-25T15:38:20.393Z,2.70
2023-02-25T15:43:42.635Z,2.40
2023-02-25T15:49:03.957Z,2.10
2023-02-25T15:54:09.217Z,2.00
2023-02-25T15:59:32.587Z,1.80
2023-02-25T16:04:46.374Z,1.70
2023-02-25T16:09:55.384Z,1.50
2023-02-25T16:15:00.224Z,1.50
2023-02-25T16:20:16.975Z,1.60
2023-02-25T16:25:28.311Z,1.50
2023-02-25T16:30:41.464Z,1.50
2023-02-25T16:35:55.424Z,1.40
2023-02-25T16:41:03.311Z,1.40
2023-02-25T16:46:10.592Z,1.40
2023-02-25T16:51:23.260Z,1.40
2023-02-25T16:56:30.182Z,1.30
2023-02-25T17:01:36.668Z,1.30
2023-02-25T17:06:41.590Z,1.20
2023-02-25T17:11:52.745Z,1.20
2023-02-25T17:16:57.588Z,1.20
2023-02-25T17:22:04.466Z,1.20
2023-02-25T17:27:12.516Z,1.30
2023-02-25T17:32:21.518Z,1.30
2023-02-25T17:37:29.235Z,1.30
2023-02-25T17:42:35.790Z,1.30
2023-02-25T17:47:43.869Z,1.40
2023-02-25T17:52:49.406Z,1.40
2023-02-25T17:57:55.799Z,1.30
2023-02-25T18:03:16.998Z,1.40
2023-02-25T18:08:23.966Z,1.40
2023-02-25T18:13:35.101Z,1.30
2023-02-25T18:18:40.232Z,1.30
2023-02-25T18:23:45.902Z,1.20
2023-02-25T18:28:49.267Z,1.20
2023-02-25T18:33:52.937Z,1.20
2023-02-25T18:39:03.220Z,1.20
2023-02-25T18:44:09.955Z,1.10
2023-02-25T18:49:13.286Z,1.20
2023-02-25T18:54:18.112Z,1.20
2023-02-25T18:59:21.448Z,1.20
2023-02-25T19:04:24.774Z,1.20
2023-02-25T19:09:30.234Z,1.30
2023-02-25T19:14:33.449Z,1.10
2023-02-25T19:19:36.666Z,1.20
2023-02-25T19:24:41.343Z,1.10
2023-02-25T19:29:44.752Z,1.00
2023-02-25T19:34:48.742Z,1.10
2023-02-25T19:39:53.474Z,1.10
2023-02-25T19:44:56.765Z,1.10
2023-02-25T19:50:00.043Z,0.90
2023-02-25T19:55:06.489Z,1.00
2023-02-25T20:00:13.968Z,1.00
2023-02-25T20:05:17.614Z,0.90
2023-02-25T20:10:22.382Z,1.00
2023-02-25T20:15:26.376Z,1.00
2023-02-25T20:20:29.653Z,0.90
2023-02-25T20:25:34.277Z,1.00
2023-02-25T20:30:38.574Z,1.00
2023-02-25T20:35:42.754Z,1.00
2023-02-25T20:40:47.994Z,1.00
2023-02-25T20:45:51.573Z,1.00
2023-02-25T20:50:55.703Z,0.90
2023-02-25T20:56:00.288Z,0.90
2023-02-25T21:01:03.765Z,0.90
2023-02-25T21:06:08.210Z,0.90
2023-02-25T21:11:13.189Z,0.90
2023-02-25T21:16:17.296Z,0.90
2023-02-25T21:21:22.045Z,0.70
2023-02-25T21:26:26.852Z,0.80
2023-02-25T21:31:30.408Z,0.80
2023-02-25T21:36:34.457Z,0.70
2023-02-25T21:41:44.429Z,0.70
2023-02-25T21:46:48.462Z,0.70
2023-02-25T21:51:52.240Z,0.80
2023-02-25T21:56:56.955Z,0.70
2023-02-25T22:02:00.522Z,0.70
2023-02-25T22:07:04.402Z,0.70
2023-02-25T22:12:08.912Z,0.70
2023-02-25T22:17:13.175Z,0.70
2023-02-25T22:22:16.887Z,0.50
2023-02-25T22:27:21.929Z,0.70
2023-02-25T22:32:26.063Z,0.70
2023-02-25T22:37:31.247Z,0.50
2023-02-25T22:42:36.030Z,0.60
2023-02-25T22:47:39.465Z,0.50
2023-02-25T22:52:44.341Z,0.50
2023-02-25T22:57:50.510Z,0.60
2023-02-25T23:02:53.797Z,0.60
2023-02-25T23:07:57.316Z,0.60
2023-02-25T23:13:07.919Z,0.50
2023-02-25T23:18:11.568Z,0.20
2023-02-25T23:23:17.693Z,0.10
2023-02-25T23:28:21.256Z,-0.10
2023-02-25T23:33:24.786Z,-0.50
2023-02-25T23:38:28.091Z,-0.70
2023-02-25T23:43:33.003Z,-0.70
2023-02-25T23:48:36.293Z,-0.90
2023-02-25T23:53:43.231Z,-1.00
2023-02-25T23:58:50.692Z,-1.00
